Shorewood, Minnesota
Current Conditions -  °F | °C
As of 7:53 AM on Monday 20 Oct 2014 (Local Time) from KFCM Reporting Station
Clear Clear  
Wind Chill: 44°   Ceiling: Unl
Heat Index: 47°   Visibility: 10mi
Dew Point: 41°   Wind: 6mph
Humidity: 80%   Direction: 310°NW
Pressure: 29.96"   Gusts: NA
Location:  44.9465°N, 93.6803°W
Report Text: KFCM 201253Z 31005KT 10SM CLR 08/05 A2996 RMK AO2 SLP148 T00830050
Loading
Personal Weather Stations






























Interactive Weather Map
Tropical Storm Tracking
New forecast layout! Learn more

10-Day Weather Forecast

Advertisements
Track Severe Weather on mobile